sensor_id;sensor_type;location;lat;lon;timestamp;pressure;altitude;pressure_sealevel;temperature;humidity
49451;BME280;35336;48.400;10.886;2023-05-02T00:00:14;96301.25;;;8.86;100.00
49451;BME280;35336;48.400;10.886;2023-05-02T00:00:30;96295.50;;;8.82;100.00
49451;BME280;35336;48.400;10.886;2023-05-02T00:00:45;96305.94;;;8.84;100.00
49451;BME280;35336;48.400;10.886;2023-05-02T00:01:01;96320.13;;;8.91;100.00
49451;BME280;35336;48.400;10.886;2023-05-02T00:01:16;96319.13;;;8.92;100.00
49451;BME280;35336;48.400;10.886;2023-05-02T00:01:32;96305.47;;;8.80;100.00
49451;BME280;35336;48.400;10.886;2023-05-02T00:01:47;96316.66;;;8.90;100.00
49451;BME280;35336;48.400;10.886;2023-05-02T00:02:03;96305.94;;;8.84;100.00
49451;BME280;35336;48.400;10.886;2023-05-02T00:02:18;96302.19;;;8.78;100.00
49451;BME280;35336;48.400;10.886;2023-05-02T00:02:33;96316.66;;;8.90;100.00
49451;BME280;35336;48.400;10.886;2023-05-02T00:02:49;96305.13;;;8.83;100.00
49451;BME280;35336;48.400;10.886;2023-05-02T00:03:04;96304.66;;;8.80;100.00
49451;BME280;35336;48.400;10.886;2023-05-02T00:03:20;96309.88;;;8.88;100.00
49451;BME280;35336;48.400;10.886;2023-05-02T00:03:35;96302.81;;;8.80;100.00
49451;BME280;35336;48.400;10.886;2023-05-02T00:03:50;96303.47;;;8.82;100.00
49451;BME280;35336;48.400;10.886;2023-05-02T00:04:06;96316.47;;;8.92;100.00
49451;BME280;35336;48.400;10.886;2023-05-02T00:04:22;96321.59;;;8.94;100.00
49451;BME280;35336;48.400;10.886;2023-05-02T00:04:37;96316.28;;;8.94;100.00
49451;BME280;35336;48.400;10.886;2023-05-02T00:04:53;96317.28;;;8.93;100.00
49451;BME280;35336;48.400;10.886;2023-05-02T00:05:08;96320.78;;;8.93;100.00
49451;BME280;35336;48.400;10.886;2023-05-02T00:05:23;96318.31;;;8.92;100.00
49451;BME280;35336;48.400;10.886;2023-05-02T00:05:39;96320.97;;;8.92;100.00
49451;BME280;35336;48.400;10.886;2023-05-02T00:05:54;96286.53;;;8.68;100.00
49451;BME280;35336;48.400;10.886;2023-05-02T00:06:09;96297.91;;;8.77;100.00
49451;BME280;35336;48.400;10.886;2023-05-02T00:06:25;96319.31;;;8.90;100.00
49451;BME280;35336;48.400;10.886;2023-05-02T00:06:40;96315.81;;;8.90;100.00
49451;BME280;35336;48.400;10.886;2023-05-02T00:06:55;96318.69;;;8.88;100.00
49451;BME280;35336;48.400;10.886;2023-05-02T00:07:11;96318.69;;;8.88;100.00
49451;BME280;35336;48.400;10.886;2023-05-02T00:07:26;96302.19;;;8.78;100.00
49451;BME280;35336;48.400;10.886;2023-05-02T00:07:42;96319.03;;;8.85;100.00
49451;BME280;35336;48.400;10.886;2023-05-02T00:07:57;96318.03;;;8.86;100.00
49451;BME280;35336;48.400;10.886;2023-05-02T00:08:13;96317.22;;;8.86;100.00
49451;BME280;35336;48.400;10.886;2023-05-02T00:08:28;96292.50;;;8.70;100.00
49451;BME280;35336;48.400;10.886;2023-05-02T00:08:43;96319.03;;;8.85;100.00
49451;BME280;35336;48.400;10.886;2023-05-02T00:08:59;96319.03;;;8.85;100.00
49451;BME280;35336;48.400;10.886;2023-05-02T00:09:14;96319.03;;;8.85;100.00
49451;BME280;35336;48.400;10.886;2023-05-02T00:09:30;96315.66;;;8.92;100.00
49451;BME280;35336;48.400;10.886;2023-05-02T00:09:45;96315.66;;;8.92;100.00
49451;BME280;35336;48.400;10.886;2023-05-02T00:10:00;96304.28;;;8.83;100.00
49451;BME280;35336;48.400;10.886;2023-05-02T00:10:16;96312.16;;;8.91;100.00
49451;BME280;35336;48.400;10.886;2023-05-02T00:10:32;96303.28;;;8.84;100.00
49451;BME280;35336;48.400;10.886;2023-05-02T00:10:47;96294.84;;;8.80;100.00
49451;BME280;35336;48.400;10.886;2023-05-02T00:11:02;96311.72;;;8.87;100.00
49451;BME280;35336;48.400;10.886;2023-05-02T00:11:18;96298.91;;;8.76;100.00
49451;BME280;35336;48.400;10.886;2023-05-02T00:11:33;96304.66;;;8.80;100.00
49451;BME280;35336;48.400;10.886;2023-05-02T00:11:48;96321.34;;;8.88;100.00
49451;BME280;35336;48.400;10.886;2023-05-02T00:12:04;96310.91;;;8.87;100.00
49451;BME280;35336;48.400;10.886;2023-05-02T00:12:19;96302.00;;;8.80;100.00
49451;BME280;35336;48.400;10.886;2023-05-02T00:12:34;96278.94;;;8.65;100.00
49451;BME280;35336;48.400;10.886;2023-05-02T00:12:49;96318.03;;;8.86;100.00
49451;BME280;35336;48.400;10.886;2023-05-02T00:13:05;96305.94;;;8.84;100.00
49451;BME280;35336;48.400;10.886;2023-05-02T00:13:20;96290.63;;;8.71;100.00
49451;BME280;35336;48.400;10.886;2023-05-02T00:13:35;96297.72;;;8.79;100.00
49451;BME280;35336;48.400;10.886;2023-05-02T00:13:51;96299.34;;;8.80;100.00
49451;BME280;35336;48.400;10.886;2023-05-02T00:14:06;96309.25;;;8.86;100.00
49451;BME280;35336;48.400;10.886;2023-05-02T00:14:21;96295.25;;;8.77;100.00
49451;BME280;35336;48.400;10.886;2023-05-02T00:14:37;96295.97;;;8.71;100.00
49451;BME280;35336;48.400;10.886;2023-05-02T00:14:52;96298.06;;;8.76;100.00
49451;BME280;35336;48.400;10.886;2023-05-02T00:15:08;96306.78;;;8.84;100.00
49451;BME280;35336;48.400;10.886;2023-05-02T00:15:23;96308.41;;;8.85;100.00
49451;BME280;35336;48.400;10.886;2023-05-02T00:15:38;96289.03;;;8.70;100.00
49451;BME280;35336;48.400;10.886;2023-05-02T00:15:54;96293.94;;;8.73;100.00
49451;BME280;35336;48.400;10.886;2023-05-02T00:16:09;96307.94;;;8.82;100.00
49451;BME280;35336;48.400;10.886;2023-05-02T00:16:24;96299.34;;;8.80;100.00
49451;BME280;35336;48.400;10.886;2023-05-02T00:16:40;96312.91;;;8.85;100.00
49451;BME280;35336;48.400;10.886;2023-05-02T00:16:55;96295.59;;;8.74;100.00
49451;BME280;35336;48.400;10.886;2023-05-02T00:17:17;96290.47;;;8.72;100.00
49451;BME280;35336;48.400;10.886;2023-05-02T00:17:33;96312.09;;;8.84;100.00
49451;BME280;35336;48.400;10.886;2023-05-02T00:17:48;96293.94;;;8.73;100.00
49451;BME280;35336;48.400;10.886;2023-05-02T00:18:03;96279.50;;;8.61;100.00
49451;BME280;35336;48.400;10.886;2023-05-02T00:18:19;96316.75;;;8.82;100.00
49451;BME280;35336;48.400;10.886;2023-05-02T00:18:34;96304.38;;;8.74;100.00
49451;BME280;35336;48.400;10.886;2023-05-02T00:18:49;96286.72;;;8.67;100.00
49451;BME280;35336;48.400;10.886;2023-05-02T00:19:05;96310.16;;;8.78;100.00
49451;BME280;35336;48.400;10.886;2023-05-02T00:19:20;96295.16;;;8.70;100.00
49451;BME280;35336;48.400;10.886;2023-05-02T00:19:38;96311.44;;;8.82;100.00
49451;BME280;35336;48.400;10.886;2023-05-02T00:19:53;96305.47;;;8.80;100.00
49451;BME280;35336;48.400;10.886;2023-05-02T00:20:09;96313.47;;;8.80;100.00
49451;BME280;35336;48.400;10.886;2023-05-02T00:20:25;96286.06;;;8.65;100.00
49451;BME280;35336;48.400;10.886;2023-05-02T00:20:40;96298.25;;;8.74;100.00
49451;BME280;35336;48.400;10.886;2023-05-02T00:20:56;96315.31;;;8.80;100.00
49451;BME280;35336;48.400;10.886;2023-05-02T00:21:11;96302.94;;;8.72;100.00
49451;BME280;35336;48.400;10.886;2023-05-02T00:21:26;96318.97;;;8.79;100.00
49451;BME280;35336;48.400;10.886;2023-05-02T00:21:42;96313.66;;;8.79;100.00
49451;BME280;35336;48.400;10.886;2023-05-02T00:21:57;96312.81;;;8.78;100.00
49451;BME280;35336;48.400;10.886;2023-05-02T00:22:12;96312.34;;;8.74;100.00
49451;BME280;35336;48.400;10.886;2023-05-02T00:22:28;96323.44;;;8.78;100.00
49451;BME280;35336;48.400;10.886;2023-05-02T00:22:43;96321.81;;;8.77;100.00
49451;BME280;35336;48.400;10.886;2023-05-02T00:22:58;96319.16;;;8.77;100.00
49451;BME280;35336;48.400;10.886;2023-05-02T00:23:13;96306.97;;;8.68;100.00
49451;BME280;35336;48.400;10.886;2023-05-02T00:23:29;96313.84;;;8.77;100.00
49451;BME280;35336;48.400;10.886;2023-05-02T00:23:44;96311.19;;;8.77;100.00
49451;BME280;35336;48.400;10.886;2023-05-02T00:23:59;96324.47;;;8.77;100.00
49451;BME280;35336;48.400;10.886;2023-05-02T00:24:16;96315.84;;;8.75;100.00
49451;BME280;35336;48.400;10.886;2023-05-02T00:24:32;96307.97;;;8.67;100.00
49451;BME280;35336;48.400;10.886;2023-05-02T00:24:47;96291.69;;;8.55;100.00
49451;BME280;35336;48.400;10.886;2023-05-02T00:25:03;96297.09;;;8.62;100.00
49451;BME280;35336;48.400;10.886;2023-05-02T00:25:18;96305.31;;;8.67;100.00
49451;BME280;35336;48.400;10.886;2023-05-02T00:25:34;96301.56;;;8.61;100.00
49451;BME280;35336;48.400;10.886;2023-05-02T00:25:49;96309.63;;;8.68;100.00
49451;BME280;35336;48.400;10.886;2023-05-02T00:26:08;96322.00;;;8.76;100.00
49451;BME280;35336;48.400;10.886;2023-05-02T00:26:23;96323.00;;;8.74;100.00
49451;BME280;35336;48.400;10.886;2023-05-02T00:26:38;96291.88;;;8.53;100.00
49451;BME280;35336;48.400;10.886;2023-05-02T00:26:54;96285.91;;;8.51;100.00
49451;BME280;35336;48.400;10.886;2023-05-02T00:27:09;96308.34;;;8.64;100.00
49451;BME280;35336;48.400;10.886;2023-05-02T00:27:24;96309.00;;;8.66;100.00
49451;BME280;35336;48.400;10.886;2023-05-02T00:27:39;96307.72;;;8.62;100.00
49451;BME280;35336;48.400;10.886;2023-05-02T00:27:55;96313.03;;;8.62;100.00
49451;BME280;35336;48.400;10.886;2023-05-02T00:28:10;96283.81;;;8.47;100.00
49451;BME280;35336;48.400;10.886;2023-05-02T00:28:26;96317.97;;;8.65;100.00
49451;BME280;35336;48.400;10.886;2023-05-02T00:28:41;96307.88;;;8.60;100.00
49451;BME280;35336;48.400;10.886;2023-05-02T00:28:56;96326.59;;;8.67;100.00
49451;BME280;35336;48.400;10.886;2023-05-02T00:29:12;96313.03;;;8.62;100.00
49451;BME280;35336;48.400;10.886;2023-05-02T00:29:27;96328.88;;;8.70;100.00
49451;BME280;35336;48.400;10.886;2023-05-02T00:29:42;96292.75;;;8.46;100.00
49451;BME280;35336;48.400;10.886;2023-05-02T00:29:59;96315.84;;;8.60;100.00
49451;BME280;35336;48.400;10.886;2023-05-02T00:30:14;96329.06;;;8.68;100.00
49451;BME280;35336;48.400;10.886;2023-05-02T00:30:29;96325.38;;;8.69;100.00
49451;BME280;35336;48.400;10.886;2023-05-02T00:30:45;96325.94;;;8.65;100.00
49451;BME280;35336;48.400;10.886;2023-05-02T00:31:01;96315.84;;;8.60;100.00
49451;BME280;35336;48.400;10.886;2023-05-02T00:31:16;96301.41;;;8.48;100.00
49451;BME280;35336;48.400;10.886;2023-05-02T00:31:31;96315.84;;;8.60;100.00
49451;BME280;35336;48.400;10.886;2023-05-02T00:31:47;96334.22;;;8.70;100.00
49451;BME280;35336;48.400;10.886;2023-05-02T00:32:02;96327.25;;;8.69;100.00
49451;BME280;35336;48.400;10.886;2023-05-02T00:32:17;96330.72;;;8.69;100.00
49451;BME280;35336;48.400;10.886;2023-05-02T00:32:32;96335.03;;;8.70;100.00
49451;BME280;35336;48.400;10.886;2023-05-02T00:32:48;96321.63;;;8.64;100.00
49451;BME280;35336;48.400;10.886;2023-05-02T00:33:03;96318.50;;;8.60;100.00
49451;BME280;35336;48.400;10.886;2023-05-02T00:33:18;96334.38;;;8.68;100.00
49451;BME280;35336;48.400;10.886;2023-05-02T00:33:34;96333.56;;;8.68;100.00
49451;BME280;35336;48.400;10.886;2023-05-02T00:33:49;96322.00;;;8.61;100.00
49451;BME280;35336;48.400;10.886;2023-05-02T00:34:04;96318.34;;;8.62;100.00
49451;BME280;35336;48.400;10.886;2023-05-02T00:34:20;96336.03;;;8.69;100.00
49451;BME280;35336;48.400;10.886;2023-05-02T00:34:35;96325.47;;;8.61;100.00
49451;BME280;35336;48.400;10.886;2023-05-02T00:34:50;96322.66;;;8.63;100.00
49451;BME280;35336;48.400;10.886;2023-05-02T00:35:07;96299.75;;;8.47;100.00
49451;BME280;35336;48.400;10.886;2023-05-02T00:35:22;96295.28;;;8.47;100.00
49451;BME280;35336;48.400;10.886;2023-05-02T00:35:37;96331.44;;;8.63;100.00
49451;BME280;35336;48.400;10.886;2023-05-02T00:35:53;96335.38;;;8.67;100.00
49451;BME280;35336;48.400;10.886;2023-05-02T00:36:18;96311.09;;;8.55;100.00
49451;BME280;35336;48.400;10.886;2023-05-02T00:36:34;96331.91;;;8.67;100.00
49451;BME280;35336;48.400;10.886;2023-05-02T00:36:49;96332.09;;;8.65;100.00
49451;BME280;35336;48.400;10.886;2023-05-02T00:37:05;96318.25;;;8.55;100.00
49451;BME280;35336;48.400;10.886;2023-05-02T00:37:25;96331.25;;;8.65;100.00
49451;BME280;35336;48.400;10.886;2023-05-02T00:37:40;96313.94;;;8.54;100.00
49451;BME280;35336;48.400;10.886;2023-05-02T00:37:55;96330.63;;;8.63;100.00
49451;BME280;35336;48.400;10.886;2023-05-02T00:38:11;96320.91;;;8.55;100.00
49451;BME280;35336;48.400;10.886;2023-05-02T00:38:26;96307.53;;;8.48;100.00
49451;BME280;35336;48.400;10.886;2023-05-02T00:38:41;96327.78;;;8.64;100.00
49451;BME280;35336;48.400;10.886;2023-05-02T00:38:56;96295.94;;;8.41;100.00
49451;BME280;35336;48.400;10.886;2023-05-02T00:39:12;96329.59;;;8.64;100.00
49451;BME280;35336;48.400;10.886;2023-05-02T00:39:27;96333.28;;;8.63;100.00
49451;BME280;35336;48.400;10.886;2023-05-02T00:39:42;96313.75;;;8.55;100.00
49451;BME280;35336;48.400;10.886;2023-05-02T00:39:57;96333.09;;;8.64;100.00
49451;BME280;35336;48.400;10.886;2023-05-02T00:40:13;96330.44;;;8.64;100.00
49451;BME280;35336;48.400;10.886;2023-05-02T00:40:28;96306.34;;;8.51;100.00
49451;BME280;35336;48.400;10.886;2023-05-02T00:40:47;96333.28;;;8.63;100.00
49451;BME280;35336;48.400;10.886;2023-05-02T00:41:03;96314.13;;;8.52;100.00
49451;BME280;35336;48.400;10.886;2023-05-02T00:41:18;96328.13;;;8.61;100.00
49451;BME280;35336;48.400;10.886;2023-05-02T00:41:33;96313.41;;;8.58;100.00
49451;BME280;35336;48.400;10.886;2023-05-02T00:41:55;96331.56;;;8.70;100.00
49451;BME280;35336;48.400;10.886;2023-05-02T00:42:10;96316.69;;;8.61;100.00
49451;BME280;35336;48.400;10.886;2023-05-02T00:42:26;96312.38;;;8.60;100.00
49451;BME280;35336;48.400;10.886;2023-05-02T00:42:41;96308.06;;;8.58;100.00
49451;BME280;35336;48.400;10.886;2023-05-02T00:42:56;96306.53;;;8.49;100.00
49451;BME280;35336;48.400;10.886;2023-05-02T00:43:13;96335.56;;;8.66;100.00
49451;BME280;35336;48.400;10.886;2023-05-02T00:43:29;96330.25;;;8.66;100.00
49451;BME280;35336;48.400;10.886;2023-05-02T00:43:44;96332.91;;;8.66;100.00
49451;BME280;35336;48.400;10.886;2023-05-02T00:44:00;96331.91;;;8.67;100.00
49451;BME280;35336;48.400;10.886;2023-05-02T00:44:15;96327.25;;;8.69;100.00
49451;BME280;35336;48.400;10.886;2023-05-02T00:44:30;96324.59;;;8.69;100.00
49451;BME280;35336;48.400;10.886;2023-05-02T00:44:46;96320.38;;;8.60;100.00
49451;BME280;35336;48.400;10.886;2023-05-02T00:45:04;96329.25;;;8.67;100.00
49451;BME280;35336;48.400;10.886;2023-05-02T00:45:20;96311.75;;;8.57;100.00
49451;BME280;35336;48.400;10.886;2023-05-02T00:45:35;96332.91;;;8.66;100.00
49451;BME280;35336;48.400;10.886;2023-05-02T00:45:51;96330.25;;;8.66;100.00
49451;BME280;35336;48.400;10.886;2023-05-02T00:46:06;96307.81;;;8.53;100.00
49451;BME280;35336;48.400;10.886;2023-05-02T00:46:22;96326.94;;;8.64;100.00
49451;BME280;35336;48.400;10.886;2023-05-02T00:46:37;96322.66;;;8.63;100.00
49451;BME280;35336;48.400;10.886;2023-05-02T00:46:55;96311.47;;;8.52;100.00
49451;BME280;35336;48.400;10.886;2023-05-02T00:47:11;96315.59;;;8.55;100.00
49451;BME280;35336;48.400;10.886;2023-05-02T00:47:28;96328.34;;;8.60;100.00
49451;BME280;35336;48.400;10.886;2023-05-02T00:47:43;96307.53;;;8.48;100.00
49451;BME280;35336;48.400;10.886;2023-05-02T00:47:59;96322.00;;;8.61;100.00
49451;BME280;35336;48.400;10.886;2023-05-02T00:48:14;96295.78;;;8.42;100.00
49451;BME280;35336;48.400;10.886;2023-05-02T00:48:30;96328.59;;;8.65;100.00
49451;BME280;35336;48.400;10.886;2023-05-02T00:48:45;96307.16;;;8.51;100.00
49451;BME280;35336;48.400;10.886;2023-05-02T00:49:00;96293.94;;;8.43;100.00
49451;BME280;35336;48.400;10.886;2023-05-02T00:49:16;96298.91;;;8.46;100.00
49451;BME280;35336;48.400;10.886;2023-05-02T00:49:31;96314.94;;;8.53;100.00
49451;BME280;35336;48.400;10.886;2023-05-02T00:49:46;96317.59;;;8.53;100.00
49451;BME280;35336;48.400;10.886;2023-05-02T00:50:01;96333.47;;;8.61;100.00
49451;BME280;35336;48.400;10.886;2023-05-02T00:50:17;96320.09;;;8.54;100.00
49451;BME280;35336;48.400;10.886;2023-05-02T00:50:36;96334.47;;;8.60;100.00
49451;BME280;35336;48.400;10.886;2023-05-02T00:50:51;96324.66;;;8.61;100.00
49451;BME280;35336;48.400;10.886;2023-05-02T00:51:07;96325.69;;;8.60;100.00
49451;BME280;35336;48.400;10.886;2023-05-02T00:51:22;96322.81;;;8.61;100.00
49451;BME280;35336;48.400;10.886;2023-05-02T00:51:38;96318.25;;;8.55;100.00
49451;BME280;35336;48.400;10.886;2023-05-02T00:51:54;96325.69;;;8.60;100.00
49451;BME280;35336;48.400;10.886;2023-05-02T00:52:09;96328.13;;;8.61;100.00
49451;BME280;35336;48.400;10.886;2023-05-02T00:52:25;96310.47;;;8.53;100.00
49451;BME280;35336;48.400;10.886;2023-05-02T00:52:40;96309.19;;;8.49;100.00
49451;BME280;35336;48.400;10.886;2023-05-02T00:52:56;96326.88;;;8.57;100.00
49451;BME280;35336;48.400;10.886;2023-05-02T00:53:11;96326.03;;;8.56;100.00
49451;BME280;35336;48.400;10.886;2023-05-02T00:53:26;96320.81;;;8.48;100.00
49451;BME280;35336;48.400;10.886;2023-05-02T00:53:42;96323.13;;;8.51;100.00
49451;BME280;35336;48.400;10.886;2023-05-02T00:53:59;96304.56;;;8.43;100.00
49451;BME280;35336;48.400;10.886;2023-05-02T00:54:14;96292.56;;;8.32;100.00
49451;BME280;35336;48.400;10.886;2023-05-02T00:54:30;96310.53;;;8.45;100.00
49451;BME280;35336;48.400;10.886;2023-05-02T00:54:46;96321.91;;;8.54;100.00
49451;BME280;35336;48.400;10.886;2023-05-02T00:55:01;96312.84;;;8.48;100.00
49451;BME280;35336;48.400;10.886;2023-05-02T00:55:16;96305.22;;;8.45;100.00
49451;BME280;35336;48.400;10.886;2023-05-02T00:55:33;96319.44;;;8.52;100.00
49451;BME280;35336;48.400;10.886;2023-05-02T00:55:48;96315.13;;;8.51;100.00
49451;BME280;35336;48.400;10.886;2023-05-02T00:56:04;96323.13;;;8.51;100.00
49451;BME280;35336;48.400;10.886;2023-05-02T00:56:19;96317.16;;;8.49;100.00
49451;BME280;35336;48.400;10.886;2023-05-02T00:56:34;96318.59;;;8.52;100.00
49451;BME280;35336;48.400;10.886;2023-05-02T00:56:50;96310.19;;;8.48;100.00
49451;BME280;35336;48.400;10.886;2023-05-02T00:57:05;96300.44;;;8.40;100.00
49451;BME280;35336;48.400;10.886;2023-05-02T00:57:20;96301.25;;;8.41;100.00
49451;BME280;35336;48.400;10.886;2023-05-02T00:57:36;96325.56;;;8.53;100.00
49451;BME280;35336;48.400;10.886;2023-05-02T00:57:52;96320.25;;;8.53;100.00
49451;BME280;35336;48.400;10.886;2023-05-02T00:58:12;96293.47;;;8.39;100.00
49451;BME280;35336;48.400;10.886;2023-05-02T00:58:28;96320.09;;;8.54;100.00
49451;BME280;35336;48.400;10.886;2023-05-02T00:58:44;96310.03;;;8.50;100.00
49451;BME280;35336;48.400;10.886;2023-05-02T00:59:00;96302.91;;;8.42;100.00
49451;BME280;35336;48.400;10.886;2023-05-02T00:59:16;96309.53;;;8.46;100.00
49451;BME280;35336;48.400;10.886;2023-05-02T00:59:34;96306.56;;;8.41;100.00
49451;BME280;35336;48.400;10.886;2023-05-02T00:59:50;96308.88;;;8.44;100.00
49451;BME280;35336;48.400;10.886;2023-05-02T01:00:06;96306.56;;;8.41;100.00
49451;BME280;35336;48.400;10.886;2023-05-02T01:00:25;96319.81;;;8.49;100.00
49451;BME280;35336;48.400;10.886;2023-05-02T01:01:21;96320.81;;;8.48;100.00
49451;BME280;35336;48.400;10.886;2023-05-02T01:01:55;96324.13;;;8.50;100.00
49451;BME280;35336;48.400;10.886;2023-05-02T01:02:47;96330.28;;;8.51;100.00
49451;BME280;35336;48.400;10.886;2023-05-02T01:03:19;96306.78;;;8.39;100.00
49451;BME280;35336;48.400;10.886;2023-05-02T01:04:19;96311.88;;;8.41;100.00
49451;BME280;35336;48.400;10.886;2023-05-02T01:05:38;96321.84;;;8.47;100.00
49451;BME280;35336;48.400;10.886;2023-05-02T01:06:09;96325.47;;;8.46;100.00
49451;BME280;35336;48.400;10.886;2023-05-02T01:08:09;96307.97;;;8.37;100.00
49451;BME280;35336;48.400;10.886;2023-05-02T01:08:37;96324.00;;;8.43;100.00
49451;BME280;35336;48.400;10.886;2023-05-02T01:09:21;96327.47;;;8.44;100.00
49451;BME280;35336;48.400;10.886;2023-05-02T01:10:52;96288.53;;;8.21;100.00
49451;BME280;35336;48.400;10.886;2023-05-02T01:11:18;96308.16;;;8.35;100.00
49451;BME280;35336;48.400;10.886;2023-05-02T01:11:51;96329.50;;;8.42;100.00
49451;BME280;35336;48.400;10.886;2023-05-02T01:12:27;96320.91;;;8.40;100.00
49451;BME280;35336;48.400;10.886;2023-05-02T01:12:59;96322.34;;;8.42;100.00
49451;BME280;35336;48.400;10.886;2023-05-02T01:13:23;96302.53;;;8.30;100.00
49451;BME280;35336;48.400;10.886;2023-05-02T01:13:41;96316.28;;;8.34;100.00
49451;BME280;35336;48.400;10.886;2023-05-02T01:13:58;96324.56;;;8.39;100.00
49451;BME280;35336;48.400;10.886;2023-05-02T01:14:16;96321.44;;;8.35;100.00
49451;BME280;35336;48.400;10.886;2023-05-02T01:14:34;96290.94;;;8.16;100.00
49451;BME280;35336;48.400;10.886;2023-05-02T01:14:52;96322.72;;;8.39;100.00
49451;BME280;35336;48.400;10.886;2023-05-02T01:15:11;96321.72;;;8.40;100.00
49451;BME280;35336;48.400;10.886;2023-05-02T01:15:30;96293.50;;;8.24;100.00
49451;BME280;35336;48.400;10.886;2023-05-02T01:15:49;96319.84;;;8.41;100.00
49451;BME280;35336;48.400;10.886;2023-05-02T01:16:06;96319.84;;;8.41;100.00
49451;BME280;35336;48.400;10.886;2023-05-02T01:16:24;96318.59;;;8.37;100.00
49451;BME280;35336;48.400;10.886;2023-05-02T01:16:40;96317.13;;;8.34;100.00
49451;BME280;35336;48.400;10.886;2023-05-02T01:17:01;96329.50;;;8.42;100.00
49451;BME280;35336;48.400;10.886;2023-05-02T01:17:18;96298.81;;;8.24;100.00
49451;BME280;35336;48.400;10.886;2023-05-02T01:17:35;96328.88;;;8.40;100.00
49451;BME280;35336;48.400;10.886;2023-05-02T01:17:53;96323.56;;;8.40;100.00
49451;BME280;35336;48.400;10.886;2023-05-02T01:18:11;96318.13;;;8.33;100.00
49451;BME280;35336;48.400;10.886;2023-05-02T01:18:31;96311.34;;;8.31;100.00
49451;BME280;35336;48.400;10.886;2023-05-02T01:18:49;96331.53;;;8.40;100.00
49451;BME280;35336;48.400;10.886;2023-05-02T01:19:08;96311.34;;;8.31;100.00
49451;BME280;35336;48.400;10.886;2023-05-02T01:19:38;96331.53;;;8.40;100.00
49451;BME280;35336;48.400;10.886;2023-05-02T01:20:02;96329.88;;;8.39;100.00
49451;BME280;35336;48.400;10.886;2023-05-02T01:20:20;96294.78;;;8.14;100.00
49451;BME280;35336;48.400;10.886;2023-05-02T01:20:39;96320.59;;;8.35;100.00
49451;BME280;35336;48.400;10.886;2023-05-02T01:21:00;96330.88;;;8.38;100.00
49451;BME280;35336;48.400;10.886;2023-05-02T01:21:17;96313.38;;;8.29;100.00
49451;BME280;35336;48.400;10.886;2023-05-02T01:21:32;96334.34;;;8.38;100.00
49451;BME280;35336;48.400;10.886;2023-05-02T01:21:49;96295.22;;;8.17;100.00
49451;BME280;35336;48.400;10.886;2023-05-02T01:22:07;96329.03;;;8.38;100.00
49451;BME280;35336;48.400;10.886;2023-05-02T01:22:25;96330.88;;;8.38;100.00
49451;BME280;35336;48.400;10.886;2023-05-02T01:22:43;96320.13;;;8.31;100.00
49451;BME280;35336;48.400;10.886;2023-05-02T01:23:02;96318.69;;;8.29;100.00
49451;BME280;35336;48.400;10.886;2023-05-02T01:23:37;96308.78;;;8.22;100.00
49451;BME280;35336;48.400;10.886;2023-05-02T01:24:15;96326.38;;;8.38;100.00
49451;BME280;35336;48.400;10.886;2023-05-02T01:24:48;96292.28;;;8.12;100.00
49451;BME280;35336;48.400;10.886;2023-05-02T01:26:08;96334.72;;;8.35;100.00
49451;BME280;35336;48.400;10.886;2023-05-02T01:26:37;96338.19;;;8.36;100.00
49451;BME280;35336;48.400;10.886;2023-05-02T01:27:14;96340.66;;;8.37;100.00
49451;BME280;35336;48.400;10.886;2023-05-02T01:27:55;96332.88;;;8.36;100.00
49451;BME280;35336;48.400;10.886;2023-05-02T01:28:45;96308.69;;;8.16;100.00
49451;BME280;35336;48.400;10.886;2023-05-02T01:29:06;96333.81;;;8.28;100.00
49451;BME280;35336;48.400;10.886;2023-05-02T01:29:22;96333.88;;;8.35;100.00
49451;BME280;35336;48.400;10.886;2023-05-02T01:29:39;96339.19;;;8.35;100.00
49451;BME280;35336;48.400;10.886;2023-05-02T01:29:56;96291.00;;;8.08;100.00
49451;BME280;35336;48.400;10.886;2023-05-02T01:30:13;96314.56;;;8.26;100.00
49451;BME280;35336;48.400;10.886;2023-05-02T01:30:33;96321.34;;;8.29;100.00
49451;BME280;35336;48.400;10.886;2023-05-02T01:30:51;96286.69;;;8.07;100.00
49451;BME280;35336;48.400;10.886;2023-05-02T01:31:09;96304.41;;;8.15;100.00
49451;BME280;35336;48.400;10.886;2023-05-02T01:31:34;96306.47;;;8.19;100.00
49451;BME280;35336;48.400;10.886;2023-05-02T01:31:50;96313.28;;;8.22;100.00
49451;BME280;35336;48.400;10.886;2023-05-02T01:32:07;96334.72;;;8.35;100.00
49451;BME280;35336;48.400;10.886;2023-05-02T01:32:23;96317.75;;;8.21;100.00
49451;BME280;35336;48.400;10.886;2023-05-02T01:32:42;96335.53;;;8.36;100.00
49451;BME280;35336;48.400;10.886;2023-05-02T01:33:01;96323.19;;;8.28;100.00
49451;BME280;35336;48.400;10.886;2023-05-02T01:33:17;96335.53;;;8.36;100.00
49451;BME280;35336;48.400;10.886;2023-05-02T01:33:34;96331.97;;;8.29;100.00
49451;BME280;35336;48.400;10.886;2023-05-02T01:33:50;96332.22;;;8.34;100.00
49451;BME280;35336;48.400;10.886;2023-05-02T01:34:09;96317.41;;;8.24;100.00
49451;BME280;35336;48.400;10.886;2023-05-02T01:34:25;96328.94;;;8.32;100.00
49451;BME280;35336;48.400;10.886;2023-05-02T01:34:43;96317.75;;;8.21;100.00
49451;BME280;35336;48.400;10.886;2023-05-02T01:35:00;96334.25;;;8.32;100.00
49451;BME280;35336;48.400;10.886;2023-05-02T01:35:17;96316.75;;;8.22;100.00
49451;BME280;35336;48.400;10.886;2023-05-02T01:35:34;96308.31;;;8.19;100.00
49451;BME280;35336;48.400;10.886;2023-05-02T01:35:51;96319.41;;;8.22;100.00
49451;BME280;35336;48.400;10.886;2023-05-02T01:36:07;96332.59;;;8.31;100.00
49451;BME280;35336;48.400;10.886;2023-05-02T01:36:26;96317.41;;;8.24;100.00
49451;BME280;35336;48.400;10.886;2023-05-02T01:36:44;96321.72;;;8.25;100.00
49451;BME280;35336;48.400;10.886;2023-05-02T01:37:02;96325.38;;;8.24;100.00